createdAt,value
2018-11-25T00:00:55.442Z,29.47
2018-11-25T00:03:43.745Z,28.90
2018-11-25T00:06:32.140Z,29.43
2018-11-25T00:09:20.469Z,28.23
2018-11-25T00:12:08.778Z,26.13
2018-11-25T00:14:57.100Z,30.27
2018-11-25T00:17:45.388Z,26.57
2018-11-25T00:20:33.688Z,28.27
2018-11-25T00:23:22.030Z,36.10
2018-11-25T00:26:10.427Z,35.27
2018-11-25T00:28:58.830Z,35.13
2018-11-25T00:31:47.262Z,37.53
2018-11-25T00:34:35.543Z,37.07
2018-11-25T00:37:23.903Z,39.43
2018-11-25T00:40:12.703Z,42.23
2018-11-25T00:43:01.054Z,40.07
2018-11-25T00:45:42.304Z,43.87
2018-11-25T00:48:23.620Z,45.73
2018-11-25T00:54:43.629Z,49.93
2018-11-25T00:57:24.724Z,48.63
2018-11-25T01:00:05.507Z,48.83
2018-11-25T01:02:47.078Z,50.00
2018-11-25T01:05:15.986Z,45.23
2018-11-25T01:08:04.273Z,49.70
2018-11-25T01:10:52.581Z,52.77
2018-11-25T01:13:40.927Z,53.33
2018-11-25T01:16:29.252Z,53.60
2018-11-25T01:19:17.534Z,56.00
2018-11-25T01:22:05.840Z,59.40
2018-11-25T01:24:54.146Z,53.13
2018-11-25T01:27:42.476Z,53.53
2018-11-25T01:30:30.803Z,58.17
2018-11-25T01:33:19.167Z,58.50
2018-11-25T01:36:07.445Z,57.50
2018-11-25T01:38:55.780Z,60.37
2018-11-25T01:41:44.102Z,61.60
2018-11-25T01:47:45.671Z,61.83
2018-11-25T01:50:33.983Z,66.07
2018-11-25T01:53:02.894Z,62.50
2018-11-25T01:55:51.470Z,56.17
2018-11-25T01:58:39.833Z,64.73
2018-11-25T02:01:28.153Z,63.67
2018-11-25T02:04:16.472Z,65.80
2018-11-25T02:07:04.771Z,66.53
2018-11-25T02:09:34.020Z,65.17
2018-11-25T02:12:22.367Z,66.27
2018-11-25T02:15:11.099Z,65.40
2018-11-25T02:17:59.463Z,66.33
2018-11-25T02:20:47.741Z,70.03
2018-11-25T02:23:16.658Z,65.33
2018-11-25T02:26:05.110Z,63.27
2018-11-25T02:28:34.022Z,62.50
2018-11-25T02:31:22.296Z,60.50
2018-11-25T02:34:10.611Z,57.07
2018-11-25T02:36:58.942Z,58.13
2018-11-25T02:39:27.876Z,54.70
2018-11-25T02:42:16.149Z,54.93
2018-11-25T02:45:04.638Z,51.63
2018-11-25T02:47:52.936Z,52.37
2018-11-25T02:50:30.971Z,49.77
2018-11-25T02:53:01.026Z,44.47
2018-11-25T02:55:29.911Z,46.17
2018-11-25T02:58:18.228Z,50.40
2018-11-25T03:00:47.170Z,49.00
2018-11-25T03:03:36.032Z,50.80
2018-11-25T03:06:24.363Z,47.93
2018-11-25T03:09:12.749Z,47.20
2018-11-25T03:12:01.447Z,44.00
2018-11-25T03:14:49.902Z,45.43
2018-11-25T03:17:38.168Z,47.63
2018-11-25T03:20:26.479Z,46.43
2018-11-25T03:23:14.789Z,53.67
2018-11-25T03:26:03.122Z,57.33
2018-11-25T03:28:32.015Z,63.77
2018-11-25T03:31:00.907Z,66.00
2018-11-25T03:33:49.223Z,63.93
2018-11-25T03:36:37.521Z,63.67
2018-11-25T03:39:25.841Z,66.67
2018-11-25T03:42:14.148Z,67.40
2018-11-25T03:44:55.438Z,67.70
2018-11-25T03:47:24.346Z,70.03
2018-11-25T03:49:53.285Z,73.03
2018-11-25T03:52:22.202Z,67.27
2018-11-25T03:55:10.946Z,66.70
2018-11-25T03:57:59.290Z,66.60
2018-11-25T04:00:47.597Z,65.83
2018-11-25T04:03:35.918Z,70.30
2018-11-25T04:06:05.316Z,65.83
2018-11-25T04:08:34.207Z,65.07
2018-11-25T04:11:03.164Z,69.50
2018-11-25T04:13:51.495Z,67.43
2018-11-25T04:16:39.838Z,69.63
2018-11-25T04:19:28.154Z,62.83
2018-11-25T04:22:16.470Z,70.53
2018-11-25T04:24:45.431Z,64.40
2018-11-25T04:27:33.751Z,61.43
2018-11-25T04:30:22.126Z,66.03
2018-11-25T04:32:51.461Z,67.17
2018-11-25T04:35:39.790Z,65.43
2018-11-25T04:38:28.110Z,62.43
2018-11-25T04:41:16.465Z,62.23
2018-11-25T04:43:45.375Z,67.67
2018-11-25T04:46:14.263Z,61.90
2018-11-25T04:49:02.994Z,60.93
2018-11-25T04:51:31.855Z,59.73
2018-11-25T04:54:20.200Z,57.63
2018-11-25T04:57:08.489Z,58.47
2018-11-25T04:59:56.820Z,60.00
2018-11-25T05:02:25.678Z,57.60
2018-11-25T05:05:14.362Z,56.87
2018-11-25T05:08:02.667Z,57.73
2018-11-25T05:10:31.641Z,60.37
2018-11-25T05:13:19.951Z,61.60
2018-11-25T05:16:08.293Z,61.73
2018-11-25T05:18:37.200Z,55.87
2018-11-25T05:21:06.078Z,55.37
2018-11-25T05:23:54.404Z,55.20
2018-11-25T05:26:42.711Z,59.17
2018-11-25T05:29:11.641Z,56.13
2018-11-25T05:31:59.940Z,55.53
2018-11-25T05:34:48.252Z,57.67
2018-11-25T05:37:36.563Z,58.87
2018-11-25T05:40:24.880Z,58.63
2018-11-25T05:43:13.174Z,59.57
2018-11-25T05:45:42.110Z,61.00
2018-11-25T05:51:43.250Z,74.50
2018-11-25T05:54:31.580Z,65.73
2018-11-25T05:57:19.892Z,68.63
2018-11-25T06:00:17.553Z,65.60
2018-11-25T06:03:05.793Z,64.80
2018-11-25T06:05:34.795Z,54.07
2018-11-25T06:08:23.082Z,53.10
2018-11-25T06:11:11.417Z,50.93
2018-11-25T06:13:59.716Z,55.97
2018-11-25T06:16:48.033Z,49.63
2018-11-25T06:19:36.591Z,46.47
2018-11-25T06:22:24.918Z,49.93
2018-11-25T06:25:13.803Z,46.37
2018-11-25T06:28:02.126Z,47.10
2018-11-25T06:30:50.414Z,48.07
2018-11-25T06:33:38.735Z,46.13
2018-11-25T06:36:27.058Z,45.87
2018-11-25T06:39:15.393Z,49.13
2018-11-25T06:42:03.680Z,44.20
2018-11-25T06:44:52.865Z,45.70
2018-11-25T06:47:41.179Z,44.47
2018-11-25T06:50:29.508Z,38.73
2018-11-25T06:53:17.823Z,40.50
2018-11-25T06:56:06.135Z,40.73
2018-11-25T06:58:54.461Z,36.53
2018-11-25T07:01:42.792Z,38.27
2018-11-25T07:04:31.117Z,34.40
2018-11-25T07:07:19.637Z,40.17
2018-11-25T07:10:09.051Z,41.13
2018-11-25T07:12:57.378Z,36.23
2018-11-25T07:15:45.703Z,34.90
2018-11-25T07:22:05.028Z,35.30
2018-11-25T07:24:53.364Z,38.73
2018-11-25T07:27:41.680Z,37.63
2018-11-25T07:30:30.000Z,37.23
2018-11-25T07:33:18.290Z,36.43
2018-11-25T07:36:06.724Z,34.20
2018-11-25T07:38:55.033Z,35.60
2018-11-25T07:41:43.379Z,36.20
2018-11-25T07:44:12.311Z,35.20
2018-11-25T07:47:00.726Z,38.27
2018-11-25T07:49:49.057Z,35.73
2018-11-25T07:52:18.074Z,30.87
2018-11-25T07:55:09.740Z,32.90
2018-11-25T07:57:58.374Z,33.23
2018-11-25T08:00:46.673Z,32.47
2018-11-25T08:03:15.627Z,38.70
2018-11-25T08:06:03.959Z,39.70
2018-11-25T08:08:52.340Z,42.20
2018-11-25T08:11:41.127Z,45.97
2018-11-25T08:14:29.433Z,44.37
2018-11-25T08:17:17.768Z,47.33
2018-11-25T08:20:07.108Z,45.50
2018-11-25T08:22:55.413Z,47.17
2018-11-25T08:25:43.730Z,51.40
2018-11-25T08:28:32.060Z,48.47
2018-11-25T08:31:20.421Z,46.53
2018-11-25T08:34:08.835Z,50.50
2018-11-25T08:36:57.084Z,46.03
2018-11-25T08:39:45.396Z,48.90
2018-11-25T08:42:33.757Z,48.27
2018-11-25T08:45:22.072Z,48.33
2018-11-25T08:47:51.041Z,47.57
2018-11-25T08:50:39.317Z,56.10
2018-11-25T08:53:27.629Z,53.53
2018-11-25T08:56:15.946Z,51.07
2018-11-25T08:58:45.062Z,53.63
2018-11-25T09:01:33.364Z,55.47
2018-11-25T09:04:21.814Z,53.17
2018-11-25T09:06:50.853Z,58.07
2018-11-25T09:09:39.188Z,63.93
2018-11-25T09:12:08.175Z,62.53
2018-11-25T09:14:56.526Z,57.13
2018-11-25T09:17:44.848Z,62.20
2018-11-25T09:20:33.226Z,62.20
2018-11-25T09:23:21.583Z,63.23
2018-11-25T09:26:09.880Z,61.77
2018-11-25T09:28:58.194Z,60.83
2018-11-25T09:31:46.505Z,63.20
2018-11-25T09:34:15.455Z,68.90
2018-11-25T09:37:03.780Z,63.17
2018-11-25T09:39:52.116Z,66.70
2018-11-25T09:42:40.495Z,66.10
2018-11-25T09:45:21.834Z,66.87
2018-11-25T09:47:51.242Z,62.77
2018-11-25T09:50:39.600Z,63.13
2018-11-25T09:53:27.946Z,68.80
2018-11-25T09:56:16.236Z,67.23
2018-11-25T09:59:04.562Z,64.13
2018-11-25T10:01:52.941Z,68.80
2018-11-25T10:04:41.274Z,75.70
2018-11-25T10:07:29.559Z,71.90
2018-11-25T10:09:58.522Z,76.60
2018-11-25T10:12:46.820Z,77.80
2018-11-25T10:15:35.137Z,73.17
2018-11-25T10:18:04.040Z,73.70
2018-11-25T10:20:33.337Z,72.20
2018-11-25T10:23:21.635Z,67.53
2018-11-25T10:26:09.950Z,65.43
2018-11-25T10:28:58.299Z,76.13
2018-11-25T10:31:46.618Z,70.53
2018-11-25T10:34:34.916Z,73.80
2018-11-25T10:37:23.241Z,67.73
2018-11-25T10:40:30.919Z,63.87
2018-11-25T10:42:59.831Z,56.97
2018-11-25T10:45:48.114Z,59.37
2018-11-25T10:48:36.416Z,61.83
2018-11-25T10:51:24.728Z,59.33
2018-11-25T10:53:53.720Z,56.93
2018-11-25T10:56:42.028Z,56.80
2018-11-25T10:59:30.433Z,56.93
2018-11-25T11:02:37.875Z,52.47
2018-11-25T11:05:45.318Z,50.37
2018-11-25T11:08:14.324Z,52.43
2018-11-25T11:10:43.222Z,51.57
2018-11-25T11:13:31.529Z,50.20
2018-11-25T11:16:19.912Z,48.37
2018-11-25T11:19:08.244Z,51.07
2018-11-25T11:21:56.589Z,51.13
2018-11-25T11:24:25.508Z,52.73
2018-11-25T11:27:13.888Z,51.57
2018-11-25T11:30:02.245Z,55.57
2018-11-25T11:32:31.129Z,56.73
2018-11-25T11:35:19.423Z,59.50
2018-11-25T11:37:48.386Z,60.57
2018-11-25T11:40:36.731Z,58.13
2018-11-25T11:43:05.990Z,54.67
2018-11-25T11:45:54.349Z,52.40
2018-11-25T11:48:23.272Z,53.20
2018-11-25T11:50:52.370Z,52.33
2018-11-25T11:53:40.719Z,51.97
2018-11-25T11:56:29.100Z,50.53
2018-11-25T11:59:17.392Z,54.50
2018-11-25T12:02:06.113Z,56.97
2018-11-25T12:04:35.269Z,60.90
2018-11-25T12:07:04.259Z,60.53
2018-11-25T12:09:52.591Z,59.13
2018-11-25T12:12:40.879Z,51.80
2018-11-25T12:15:31.113Z,56.63
2018-11-25T12:17:59.043Z,51.43
2018-11-25T12:20:29.150Z,51.63
2018-11-25T12:22:58.647Z,47.57
2018-11-25T12:25:46.977Z,46.70
2018-11-25T12:28:35.004Z,46.13
2018-11-25T12:31:03.994Z,46.57
2018-11-25T12:33:52.291Z,43.57
2018-11-25T12:39:34.341Z,44.37
2018-11-25T12:45:10.398Z,45.27
2018-11-25T12:47:51.575Z,42.60
2018-11-25T12:50:32.681Z,41.90
2018-11-25T12:53:01.729Z,41.33
2018-11-25T12:55:50.159Z,38.33
2018-11-25T12:58:38.531Z,43.37
2018-11-25T13:01:26.893Z,47.20
2018-11-25T13:04:15.258Z,47.23
2018-11-25T13:07:03.604Z,46.17
2018-11-25T13:09:51.942Z,45.43
2018-11-25T13:12:40.268Z,43.67
2018-11-25T13:15:28.594Z,44.67
2018-11-25T13:18:16.981Z,50.97
2018-11-25T13:21:05.392Z,50.67
2018-11-25T13:23:53.832Z,49.23
2018-11-25T13:26:22.727Z,53.33
2018-11-25T13:29:11.054Z,54.03
2018-11-25T13:31:40.081Z,51.50
2018-11-25T13:34:28.423Z,52.97
2018-11-25T13:36:57.482Z,54.43
2018-11-25T13:39:45.978Z,54.67
2018-11-25T13:42:34.252Z,49.27
2018-11-25T13:45:02.178Z,50.90
2018-11-25T13:47:31.364Z,50.47
2018-11-25T13:50:19.901Z,51.20
2018-11-25T13:53:08.257Z,49.53
2018-11-25T13:55:56.605Z,45.60
2018-11-25T13:58:25.610Z,45.63
2018-11-25T14:00:54.538Z,45.43
2018-11-25T14:03:42.941Z,43.87
2018-11-25T14:06:13.687Z,42.17
2018-11-25T14:08:43.824Z,45.83
2018-11-25T14:11:32.960Z,45.80
2018-11-25T14:14:20.481Z,43.87
2018-11-25T14:17:08.811Z,40.97
2018-11-25T14:19:57.168Z,38.73
2018-11-25T14:22:45.457Z,41.23
2018-11-25T14:25:33.786Z,43.23
2018-11-25T14:28:22.115Z,43.67
2018-11-25T14:30:53.305Z,42.43
2018-11-25T14:33:41.618Z,40.23
2018-11-25T14:36:10.565Z,45.00
2018-11-25T14:38:58.991Z,44.60
2018-11-25T14:41:47.330Z,42.87
2018-11-25T14:47:24.834Z,43.73
2018-11-25T14:50:13.766Z,46.23
2018-11-25T14:53:37.845Z,49.80
2018-11-25T14:56:26.157Z,46.27
2018-11-25T15:02:49.007Z,48.87
2018-11-25T15:05:38.179Z,49.23
2018-11-25T15:08:26.871Z,49.17
2018-11-25T15:11:15.156Z,50.43
2018-11-25T15:14:03.217Z,50.87
2018-11-25T15:16:32.129Z,52.13
2018-11-25T15:19:20.600Z,49.73
2018-11-25T15:22:08.946Z,51.07
2018-11-25T15:28:11.079Z,48.00
2018-11-25T15:30:40.016Z,50.93
2018-11-25T15:33:28.321Z,48.03
2018-11-25T15:35:57.237Z,48.07
2018-11-25T15:38:45.588Z,51.37
2018-11-25T15:41:33.919Z,48.57
2018-11-25T15:44:22.322Z,54.53
2018-11-25T15:46:51.327Z,49.47
2018-11-25T15:53:43.468Z,50.20
2018-11-25T15:56:49.975Z,48.33
2018-11-25T15:59:45.806Z,49.93
2018-11-25T16:02:34.164Z,49.10
2018-11-25T16:05:26.274Z,51.47
2018-11-25T16:08:14.340Z,50.17
2018-11-25T16:11:02.631Z,55.33
2018-11-25T16:17:41.005Z,51.77
2018-11-25T16:20:29.284Z,51.33
2018-11-25T16:23:17.599Z,55.27
2018-11-25T16:26:25.350Z,50.03
2018-11-25T16:29:32.999Z,52.87
2018-11-25T16:32:02.000Z,53.60
2018-11-25T16:34:50.281Z,53.23
2018-11-25T16:37:39.146Z,50.20
2018-11-25T16:40:27.496Z,49.83
2018-11-25T16:43:15.895Z,51.00
2018-11-25T16:46:04.165Z,48.37
2018-11-25T16:48:52.470Z,50.33
2018-11-25T16:51:40.778Z,50.30
2018-11-25T16:54:29.136Z,49.10
2018-11-25T16:57:17.445Z,45.50
2018-11-25T17:00:25.143Z,48.37
2018-11-25T17:02:54.505Z,46.00
2018-11-25T17:05:25.682Z,44.83
2018-11-25T17:08:14.965Z,48.37
2018-11-25T17:10:44.501Z,45.53
2018-11-25T17:13:33.035Z,47.13
2018-11-25T17:16:21.472Z,44.80
2018-11-25T17:19:09.868Z,46.70
2018-11-25T17:21:38.838Z,49.33
2018-11-25T17:24:27.198Z,50.73
2018-11-25T17:27:15.507Z,47.73
2018-11-25T17:30:04.871Z,44.17
2018-11-25T17:32:53.583Z,49.87
2018-11-25T17:35:42.328Z,47.77
2018-11-25T17:38:30.640Z,49.60
2018-11-25T17:40:59.574Z,52.27
2018-11-25T17:43:47.920Z,46.13
2018-11-25T17:46:17.655Z,46.20
2018-11-25T17:48:47.071Z,49.03
2018-11-25T17:51:35.351Z,46.03
2018-11-25T17:54:23.715Z,49.13
2018-11-25T17:56:53.527Z,45.53
2018-11-25T17:59:41.156Z,47.73
2018-11-25T18:02:29.446Z,50.77
2018-11-25T18:05:17.769Z,45.53
2018-11-25T18:07:46.739Z,46.10
2018-11-25T18:10:35.148Z,47.87
2018-11-25T18:13:04.197Z,45.67
2018-11-25T18:15:53.063Z,47.23
2018-11-25T18:18:42.806Z,49.10
2018-11-25T18:21:13.959Z,47.53
2018-11-25T18:24:02.250Z,44.80
2018-11-25T18:26:50.733Z,45.03
2018-11-25T18:29:39.056Z,43.53
2018-11-25T18:32:07.977Z,46.63
2018-11-25T18:34:56.425Z,48.20
2018-11-25T18:37:46.604Z,45.00
2018-11-25T18:40:34.987Z,47.37
2018-11-25T18:43:23.329Z,44.30
2018-11-25T18:46:04.294Z,43.17
2018-11-25T18:48:45.604Z,45.30
2018-11-25T18:51:27.397Z,42.77
2018-11-25T18:53:56.524Z,41.93
2018-11-25T18:56:25.362Z,48.07
2018-11-25T18:59:13.669Z,41.40
2018-11-25T19:02:03.164Z,46.40
2018-11-25T19:04:32.087Z,41.83
2018-11-25T19:07:20.378Z,42.93
2018-11-25T19:10:18.064Z,41.00
2018-11-25T19:13:06.440Z,50.13
2018-11-25T19:15:54.769Z,45.57
2018-11-25T19:18:43.057Z,47.40
2018-11-25T19:21:31.398Z,46.97
2018-11-25T19:24:00.375Z,49.23
2018-11-25T19:26:29.538Z,48.07
2018-11-25T19:28:58.584Z,50.07
2018-11-25T19:31:46.905Z,45.27
2018-11-25T19:34:35.229Z,55.50
2018-11-25T19:37:23.557Z,52.97
2018-11-25T19:39:52.575Z,56.43
2018-11-25T19:42:41.002Z,49.67
2018-11-25T19:45:29.502Z,52.13
2018-11-25T19:48:17.948Z,52.63
2018-11-25T19:51:06.394Z,48.23
2018-11-25T19:53:54.723Z,50.80
2018-11-25T19:56:43.043Z,54.10
2018-11-25T19:59:31.375Z,56.60
2018-11-25T20:04:54.656Z,57.40
2018-11-25T20:07:23.648Z,56.07
2018-11-25T20:10:12.501Z,60.57
2018-11-25T20:15:32.715Z,54.17
2018-11-25T20:18:03.138Z,54.87
2018-11-25T20:21:30.134Z,57.80
2018-11-25T20:24:19.145Z,55.30
2018-11-25T20:27:27.033Z,57.03
2018-11-25T20:33:23.929Z,52.00
2018-11-25T20:36:12.398Z,54.43
2018-11-25T20:39:19.866Z,57.83
2018-11-25T20:41:49.036Z,55.83
2018-11-25T20:44:37.623Z,55.90
2018-11-25T20:47:25.961Z,54.47
2018-11-25T20:50:15.278Z,57.73
2018-11-25T20:53:23.075Z,58.60
2018-11-25T20:56:11.696Z,58.13
2018-11-25T20:58:41.198Z,63.80
2018-11-25T21:01:29.713Z,61.83
2018-11-25T21:04:18.823Z,61.07
2018-11-25T21:06:47.916Z,60.60
2018-11-25T21:09:36.501Z,59.77
2018-11-25T21:12:25.453Z,64.27
2018-11-25T21:15:13.955Z,63.43
2018-11-25T21:18:22.290Z,58.10
2018-11-25T21:20:51.727Z,60.03
2018-11-25T21:23:40.143Z,65.27
2018-11-25T21:26:29.378Z,62.93
2018-11-25T21:29:17.840Z,61.63
2018-11-25T21:32:06.426Z,63.63
2018-11-25T21:34:55.339Z,63.97
2018-11-25T21:37:44.083Z,65.17
2018-11-25T21:40:32.445Z,61.93
2018-11-25T21:43:01.502Z,65.13
2018-11-25T21:45:50.123Z,63.37
2018-11-25T21:48:39.427Z,66.43
2018-11-25T21:51:28.015Z,72.37
2018-11-25T21:53:57.402Z,63.60
2018-11-25T21:56:46.122Z,65.37
2018-11-25T21:59:35.128Z,71.33
2018-11-25T22:02:04.715Z,63.03
2018-11-25T22:04:53.254Z,66.40
2018-11-25T22:07:41.989Z,68.37
2018-11-25T22:10:13.081Z,74.67
2018-11-25T22:13:01.963Z,67.40
2018-11-25T22:18:39.372Z,68.47
2018-11-25T22:21:27.684Z,77.40
2018-11-25T22:24:16.007Z,66.47
2018-11-25T22:27:04.339Z,66.50
2018-11-25T22:29:52.647Z,68.07
2018-11-25T22:32:41.006Z,66.93
2018-11-25T22:35:29.303Z,72.33
2018-11-25T22:37:58.312Z,67.60
2018-11-25T22:40:46.635Z,63.67
2018-11-25T22:43:34.974Z,65.67
2018-11-25T22:46:03.939Z,62.83
2018-11-25T22:48:52.256Z,69.10
2018-11-25T22:51:40.603Z,60.00
2018-11-25T22:54:28.971Z,65.83
2018-11-25T22:57:17.278Z,65.53
2018-11-25T22:59:46.152Z,59.73
2018-11-25T23:05:47.616Z,60.33
2018-11-25T23:08:35.927Z,58.80
2018-11-25T23:11:24.241Z,56.93
2018-11-25T23:14:12.574Z,58.30
2018-11-25T23:17:00.875Z,58.77
2018-11-25T23:22:43.647Z,58.90
2018-11-25T23:25:32.003Z,58.47
2018-11-25T23:28:20.340Z,57.03
2018-11-25T23:31:08.746Z,59.77
2018-11-25T23:33:57.256Z,57.40
2018-11-25T23:36:26.165Z,55.67
2018-11-25T23:38:55.256Z,54.63
2018-11-25T23:44:56.800Z,56.13
2018-11-25T23:50:39.465Z,58.80
2018-11-25T23:53:27.794Z,62.67
2018-11-25T23:55:56.907Z,56.37
2018-11-25T23:58:45.245Z,58.57
